Terminal Aerodrome Forecast
Issued by NWS

Current Version | Previous Version | Text Only | Print | Product List | Glossary On
Versions: 1 2 3 4 5 6 7 8 9 10 11 12 13 14 15 16 17 18 19 20 21
000
FTAK31 PANC 260531
TAFACD
TAF
PACD 260531Z 2606/2706 15024G32KT P6SM SKC
     FM260900 15017KT P6SM VCFG SCT005
     FM261800 14008KT P6SM FEW020 BKN200=

USA.gov is the U.S. government's official web portal to all federal, state and local government web resources and services.